createdAt,value
2022-08-18T00:02:00.557Z,9.80
2022-08-18T00:04:36.609Z,8.23
2022-08-18T00:07:16.347Z,15.47
2022-08-18T00:09:47.697Z,9.57
2022-08-18T00:12:17.970Z,9.47
2022-08-18T00:14:47.438Z,14.97
2022-08-18T00:17:16.339Z,11.10
2022-08-18T00:19:47.373Z,12.63
2022-08-18T00:22:18.830Z,11.50
2022-08-18T00:24:53.464Z,10.23
2022-08-18T00:27:26.191Z,10.10
2022-08-18T00:29:58.463Z,9.10
2022-08-18T00:32:29.552Z,11.23
2022-08-18T00:34:57.578Z,10.70
2022-08-18T00:37:25.678Z,8.47
2022-08-18T00:39:55.294Z,9.13
2022-08-18T00:42:28.183Z,8.90
2022-08-18T00:45:01.246Z,11.00
2022-08-18T00:47:41.752Z,10.50
2022-08-18T00:50:15.853Z,12.73
2022-08-18T00:52:48.635Z,9.33
2022-08-18T00:55:19.451Z,7.77
2022-08-18T00:57:49.416Z,11.07
2022-08-18T01:00:17.436Z,8.50
2022-08-18T01:02:49.223Z,8.20
2022-08-18T01:05:22.614Z,10.67
2022-08-18T01:07:51.350Z,10.77
2022-08-18T01:10:23.138Z,7.87
2022-08-18T01:12:53.247Z,8.90
2022-08-18T01:15:29.116Z,9.97
2022-08-18T01:18:16.983Z,8.40
2022-08-18T01:21:09.138Z,6.67
2022-08-18T01:23:39.286Z,7.47
2022-08-18T01:26:06.421Z,7.10
2022-08-18T01:28:36.142Z,9.23
2022-08-18T01:31:04.741Z,8.53
2022-08-18T01:33:36.570Z,7.30
2022-08-18T01:36:16.359Z,9.50
2022-08-18T01:38:47.120Z,8.47
2022-08-18T01:41:25.867Z,6.73
2022-08-18T01:43:56.097Z,9.23
2022-08-18T01:46:24.415Z,7.20
2022-08-18T01:48:53.682Z,7.87
2022-08-18T01:51:39.880Z,11.43
2022-08-18T01:54:12.939Z,7.23
2022-08-18T01:56:42.358Z,9.77
2022-08-18T01:59:14.523Z,8.23
2022-08-18T02:04:52.313Z,9.03
2022-08-18T02:07:20.121Z,11.77
2022-08-18T02:09:51.075Z,7.70
2022-08-18T02:12:19.014Z,8.80
2022-08-18T02:14:46.781Z,10.50
2022-08-18T02:17:15.229Z,8.93
2022-08-18T02:19:45.948Z,10.77
2022-08-18T02:22:16.431Z,8.00
2022-08-18T02:24:44.512Z,9.03
2022-08-18T02:27:16.229Z,9.20
2022-08-18T02:29:44.246Z,7.80
2022-08-18T02:32:12.020Z,7.30
2022-08-18T02:34:40.888Z,8.30
2022-08-18T02:37:13.126Z,7.80
2022-08-18T02:39:42.705Z,10.07
2022-08-18T02:42:10.573Z,7.83
2022-08-18T02:44:39.660Z,7.43
2022-08-18T02:47:07.838Z,7.40
2022-08-18T02:49:36.835Z,6.30
2022-08-18T02:52:06.014Z,9.10
2022-08-18T02:54:35.219Z,8.33
2022-08-18T02:57:08.066Z,8.60
2022-08-18T02:59:37.358Z,6.50
2022-08-18T03:02:09.554Z,8.03
2022-08-18T03:04:38.082Z,7.93
2022-08-18T03:07:08.100Z,6.27
2022-08-18T03:09:36.356Z,10.77
2022-08-18T03:12:05.056Z,9.27
2022-08-18T03:14:32.723Z,7.90
2022-08-18T03:17:00.829Z,10.50
2022-08-18T03:19:30.931Z,7.53
2022-08-18T03:22:02.795Z,8.53
2022-08-18T03:24:32.917Z,7.60
2022-08-18T03:27:02.177Z,7.07
2022-08-18T03:29:32.761Z,9.20
2022-08-18T03:32:01.778Z,7.60
2022-08-18T03:34:31.627Z,6.00
2022-08-18T03:37:00.097Z,7.70
2022-08-18T03:39:28.654Z,8.03
2022-08-18T03:42:00.967Z,7.53
2022-08-18T03:44:31.942Z,7.00
2022-08-18T03:47:03.075Z,8.70
2022-08-18T03:49:33.627Z,6.47
2022-08-18T03:52:01.752Z,6.70
2022-08-18T03:54:32.270Z,9.47
2022-08-18T03:57:00.445Z,7.70
2022-08-18T03:59:31.778Z,11.23
2022-08-18T04:01:59.793Z,7.17
2022-08-18T04:04:29.187Z,7.43
2022-08-18T04:07:01.383Z,8.13
2022-08-18T04:09:31.665Z,7.10
2022-08-18T04:12:04.283Z,8.00
2022-08-18T04:14:34.626Z,12.67
2022-08-18T04:17:02.387Z,7.10
2022-08-18T04:19:31.005Z,6.73
2022-08-18T04:22:00.241Z,6.23
2022-08-18T04:24:30.938Z,8.07
2022-08-18T04:27:01.577Z,12.43
2022-08-18T04:29:29.644Z,7.03
2022-08-18T04:31:57.709Z,7.90
2022-08-18T04:34:27.387Z,7.00
2022-08-18T04:36:55.085Z,6.37
2022-08-18T04:39:25.709Z,7.43
2022-08-18T04:41:54.026Z,9.40
2022-08-18T04:44:22.311Z,11.27
2022-08-18T04:46:54.574Z,11.30
2022-08-18T04:49:25.992Z,8.10
2022-08-18T04:52:34.361Z,9.13
2022-08-18T04:55:02.995Z,9.07
2022-08-18T04:57:34.005Z,10.13
2022-08-18T05:00:06.038Z,9.10
2022-08-18T05:02:33.866Z,9.77
2022-08-18T05:05:03.108Z,12.60
2022-08-18T05:07:31.355Z,7.33
2022-08-18T05:09:59.241Z,8.33
2022-08-18T05:12:29.096Z,8.40
2022-08-18T05:14:57.867Z,11.53
2022-08-18T05:17:29.959Z,8.37
2022-08-18T05:19:58.743Z,9.93
2022-08-18T05:22:30.566Z,7.27
2022-08-18T05:25:00.007Z,8.47
2022-08-18T05:27:35.161Z,9.50
2022-08-18T05:30:04.032Z,9.20
2022-08-18T05:32:47.877Z,8.97
2022-08-18T05:35:23.352Z,8.87
2022-08-18T05:38:19.199Z,10.17
2022-08-18T05:40:47.710Z,8.33
2022-08-18T05:43:18.414Z,14.20
2022-08-18T05:45:46.282Z,11.10
2022-08-18T05:48:15.143Z,9.53
2022-08-18T05:50:43.270Z,11.73
2022-08-18T05:53:15.557Z,11.20
2022-08-18T05:56:09.389Z,6.60
2022-08-18T05:58:43.485Z,8.93
2022-08-18T06:01:17.181Z,6.47
2022-08-18T06:03:50.194Z,8.83
2022-08-18T06:06:21.272Z,7.53
2022-08-18T06:08:58.335Z,7.03
2022-08-18T06:11:26.762Z,8.27
2022-08-18T06:13:59.634Z,7.23
2022-08-18T06:16:50.578Z,7.37
2022-08-18T06:19:36.061Z,8.73
2022-08-18T06:22:14.824Z,8.23
2022-08-18T06:24:52.224Z,8.90
2022-08-18T06:27:31.126Z,7.57
2022-08-18T06:30:08.417Z,8.03
2022-08-18T06:33:02.633Z,8.40
2022-08-18T06:35:36.386Z,7.10
2022-08-18T06:38:40.197Z,17.60
2022-08-18T06:41:42.379Z,7.77
2022-08-18T06:44:10.922Z,8.87
2022-08-18T06:46:46.019Z,8.03
2022-08-18T06:49:31.945Z,8.87
2022-08-18T06:51:59.753Z,14.47
2022-08-18T06:54:29.964Z,8.50
2022-08-18T06:56:59.780Z,10.10
2022-08-18T06:59:30.682Z,10.07
2022-08-18T07:02:12.578Z,12.43
2022-08-18T07:04:43.262Z,11.80
2022-08-18T07:07:40.335Z,11.97
2022-08-18T07:10:35.124Z,9.70
2022-08-18T07:13:17.081Z,9.07
2022-08-18T07:15:45.406Z,8.10
2022-08-18T07:18:16.059Z,12.17
2022-08-18T07:20:45.567Z,8.90
2022-08-18T07:23:25.321Z,13.67
2022-08-18T07:26:15.657Z,10.40
2022-08-18T07:28:46.193Z,11.30
2022-08-18T07:31:20.902Z,10.10
2022-08-18T07:33:56.148Z,9.23
2022-08-18T07:36:28.744Z,9.53
2022-08-18T07:39:04.047Z,11.40
2022-08-18T07:41:36.656Z,9.67
2022-08-18T07:44:18.343Z,7.67
2022-08-18T07:46:59.592Z,8.30
2022-08-18T07:49:33.396Z,9.37
2022-08-18T07:52:06.698Z,9.57
2022-08-18T07:54:57.441Z,10.40
2022-08-18T07:57:42.082Z,12.90
2022-08-18T08:00:26.793Z,10.50
2022-08-18T08:03:17.950Z,14.30
2022-08-18T08:05:55.634Z,10.80
2022-08-18T08:08:30.821Z,13.30
2022-08-18T08:11:10.889Z,10.77
2022-08-18T08:13:55.722Z,10.20
2022-08-18T08:16:38.387Z,10.40
2022-08-18T08:19:42.375Z,12.30
2022-08-18T08:22:18.050Z,10.83
2022-08-18T08:24:56.992Z,10.40
2022-08-18T08:27:35.349Z,12.20
2022-08-18T08:30:08.159Z,13.10
2022-08-18T08:32:37.890Z,9.37
2022-08-18T08:35:47.052Z,12.33
2022-08-18T08:38:39.467Z,8.70
2022-08-18T08:41:03.493Z,9.47
2022-08-18T08:43:35.463Z,12.47
2022-08-18T08:46:11.002Z,11.43
2022-08-18T08:48:44.035Z,8.90
2022-08-18T08:51:30.102Z,9.63
2022-08-18T08:54:05.082Z,8.67
2022-08-18T08:56:44.017Z,10.23
2022-08-18T08:59:14.350Z,9.33
2022-08-18T09:01:49.413Z,9.90
2022-08-18T09:04:32.500Z,11.63
2022-08-18T09:07:14.999Z,9.67
2022-08-18T09:09:58.869Z,10.07
2022-08-18T09:12:42.578Z,9.40
2022-08-18T09:15:31.942Z,7.87
2022-08-18T09:18:19.274Z,11.13
2022-08-18T09:20:56.360Z,9.23
2022-08-18T09:23:27.280Z,8.37
2022-08-18T09:26:00.255Z,9.10
2022-08-18T09:28:56.215Z,10.97
2022-08-18T09:31:25.495Z,10.13
2022-08-18T09:34:35.029Z,9.50
2022-08-18T09:37:13.297Z,8.40
2022-08-18T09:40:11.373Z,11.43
2022-08-18T09:42:50.623Z,9.10
2022-08-18T09:45:57.955Z,8.83
2022-08-18T09:48:33.083Z,8.77
2022-08-18T09:51:24.657Z,8.23
2022-08-18T09:54:20.757Z,10.37
2022-08-18T10:00:28.973Z,11.67
2022-08-18T10:03:25.661Z,8.63
2022-08-18T10:06:20.727Z,10.70
2022-08-18T10:12:27.297Z,9.80
2022-08-18T10:15:32.977Z,11.83
2022-08-18T10:18:35.256Z,10.83
2022-08-18T10:21:12.600Z,10.90
2022-08-18T10:24:14.710Z,11.03
2022-08-18T10:26:59.879Z,11.33
2022-08-18T10:29:57.158Z,7.70
2022-08-18T10:32:37.767Z,8.40
2022-08-18T10:35:32.637Z,7.50
2022-08-18T10:38:03.830Z,8.43
2022-08-18T10:40:33.037Z,10.53
2022-08-18T10:43:45.279Z,9.80
2022-08-18T10:48:59.574Z,11.10
2022-08-18T10:51:59.299Z,8.40
2022-08-18T10:54:51.560Z,12.83
2022-08-18T10:57:31.722Z,9.67
2022-08-18T11:00:06.778Z,10.37
2022-08-18T11:03:13.953Z,7.83
2022-08-18T11:05:43.301Z,8.37
2022-08-18T11:08:17.336Z,9.70
2022-08-18T11:11:27.583Z,10.70
2022-08-18T11:13:53.695Z,9.10
2022-08-18T11:16:33.884Z,7.60
2022-08-18T11:19:09.587Z,7.50
2022-08-18T11:21:43.526Z,11.60
2022-08-18T11:24:15.875Z,8.50
2022-08-18T11:26:51.146Z,9.33
2022-08-18T11:29:32.555Z,9.03
2022-08-18T11:35:12.288Z,7.73
2022-08-18T11:37:48.542Z,9.70
2022-08-18T11:49:17.938Z,5.30
2022-08-18T11:52:03.179Z,6.07
2022-08-18T11:54:40.142Z,6.47
2022-08-18T12:01:01.399Z,10.93
2022-08-18T12:03:37.941Z,10.07
2022-08-18T12:06:19.489Z,10.63
2022-08-18T12:09:06.986Z,14.13
2022-08-18T12:11:41.182Z,12.60
2022-08-18T12:14:32.336Z,7.30
2022-08-18T12:17:05.006Z,8.77
2022-08-18T12:19:34.953Z,7.60
2022-08-18T12:22:13.791Z,8.47
2022-08-18T12:24:41.491Z,8.20
2022-08-18T12:27:21.494Z,6.90
2022-08-18T12:29:50.422Z,7.77
2022-08-18T12:32:46.674Z,7.90
2022-08-18T12:35:11.222Z,5.93
2022-08-18T12:37:58.810Z,8.37
2022-08-18T12:40:28.373Z,6.27
2022-08-18T12:42:56.626Z,8.63
2022-08-18T12:45:27.210Z,12.60
2022-08-18T12:47:56.851Z,5.90
2022-08-18T12:50:31.392Z,8.43
2022-08-18T12:53:01.875Z,8.70
2022-08-18T12:58:28.372Z,8.43
2022-08-18T13:00:56.745Z,6.40
2022-08-18T13:03:27.406Z,5.90
2022-08-18T13:05:57.333Z,9.10
2022-08-18T13:08:33.436Z,6.67
2022-08-18T13:11:13.257Z,12.47
2022-08-18T13:13:44.418Z,8.37
2022-08-18T13:16:16.481Z,9.03
2022-08-18T13:18:59.935Z,7.10
2022-08-18T13:21:27.767Z,10.10
2022-08-18T13:24:07.303Z,12.93
2022-08-18T13:26:39.138Z,6.87
2022-08-18T13:29:10.006Z,7.80
2022-08-18T13:31:39.269Z,9.47
2022-08-18T13:34:15.201Z,10.67
2022-08-18T13:36:48.075Z,7.80
2022-08-18T13:39:19.153Z,6.43
2022-08-18T13:41:48.948Z,6.90
2022-08-18T13:44:18.942Z,6.63
2022-08-18T13:46:48.638Z,9.70
2022-08-18T13:49:23.565Z,7.10
2022-08-18T13:52:00.505Z,8.33
2022-08-18T13:54:35.203Z,7.80
2022-08-18T13:57:04.346Z,12.83
2022-08-18T13:59:34.053Z,7.60
2022-08-18T14:02:03.660Z,10.40
2022-08-18T14:04:33.508Z,7.17
2022-08-18T14:07:08.980Z,10.23
2022-08-18T14:09:38.426Z,8.47
2022-08-18T14:12:21.765Z,7.87
2022-08-18T14:14:52.569Z,13.03
2022-08-18T14:17:22.534Z,7.57
2022-08-18T14:20:15.145Z,7.90
2022-08-18T14:23:09.082Z,10.23
2022-08-18T14:26:44.400Z,9.50
2022-08-18T14:29:16.502Z,9.10
2022-08-18T14:31:45.125Z,11.73
2022-08-18T14:34:12.866Z,7.60
2022-08-18T14:36:50.681Z,8.70
2022-08-18T14:39:20.692Z,7.80
2022-08-18T14:41:49.615Z,12.33
2022-08-18T14:44:25.493Z,6.97
2022-08-18T14:46:59.714Z,9.20
2022-08-18T14:49:30.255Z,7.73
2022-08-18T14:52:00.758Z,11.90
2022-08-18T14:54:30.091Z,9.80
2022-08-18T14:57:01.158Z,8.23
2022-08-18T14:59:30.771Z,13.13
2022-08-18T15:02:07.629Z,7.57
2022-08-18T15:04:53.231Z,10.43
2022-08-18T15:07:27.485Z,6.50
2022-08-18T15:10:15.188Z,8.93
2022-08-18T15:12:43.958Z,8.70
2022-08-18T15:15:18.106Z,7.07
2022-08-18T15:17:50.071Z,6.23
2022-08-18T15:20:24.028Z,7.30
2022-08-18T15:23:22.862Z,7.03
2022-08-18T15:25:56.382Z,7.33
2022-08-18T15:28:27.090Z,10.47
2022-08-18T15:33:42.706Z,6.57
2022-08-18T15:36:16.116Z,6.20
2022-08-18T15:38:45.405Z,6.97
2022-08-18T15:41:29.319Z,6.63
2022-08-18T15:44:00.760Z,9.67
2022-08-18T15:46:28.504Z,6.37
2022-08-18T15:48:57.202Z,8.00
2022-08-18T15:51:27.482Z,10.50
2022-08-18T15:54:11.350Z,7.80
2022-08-18T15:57:23.701Z,8.63
2022-08-18T16:00:02.080Z,10.83
2022-08-18T16:02:40.186Z,7.73
2022-08-18T16:05:10.317Z,8.60
2022-08-18T16:07:46.538Z,7.20
2022-08-18T16:10:16.737Z,11.67
2022-08-18T16:12:45.719Z,9.23
2022-08-18T16:15:15.586Z,8.07
2022-08-18T16:17:49.135Z,8.53
2022-08-18T16:20:18.682Z,7.77
2022-08-18T16:22:47.140Z,7.03
2022-08-18T16:25:18.149Z,8.60
2022-08-18T16:27:47.807Z,12.43
2022-08-18T16:30:18.910Z,8.50
2022-08-18T16:32:47.346Z,9.47
2022-08-18T16:35:22.377Z,9.20
2022-08-18T16:37:50.936Z,6.60
2022-08-18T16:40:21.047Z,9.30
2022-08-18T16:42:49.163Z,10.73
2022-08-18T16:45:22.817Z,7.60
2022-08-18T16:47:50.725Z,7.13
2022-08-18T16:50:19.310Z,10.37
2022-08-18T16:52:47.217Z,6.53
2022-08-18T16:55:15.021Z,7.23
2022-08-18T16:58:03.364Z,10.33
2022-08-18T17:00:54.538Z,10.37
2022-08-18T17:03:40.666Z,11.93
2022-08-18T17:06:11.787Z,10.40
2022-08-18T17:08:41.198Z,8.53
2022-08-18T17:11:12.579Z,8.27
2022-08-18T17:13:43.314Z,10.50
2022-08-18T17:16:12.310Z,8.33
2022-08-18T17:18:40.836Z,12.90
2022-08-18T17:21:11.212Z,10.43
2022-08-18T17:23:40.468Z,8.27
2022-08-18T17:26:10.571Z,8.20
2022-08-18T17:28:50.558Z,9.23
2022-08-18T17:31:22.511Z,12.83
2022-08-18T17:33:50.172Z,11.60
2022-08-18T17:36:24.073Z,8.70
2022-08-18T17:38:58.290Z,11.17
2022-08-18T17:41:26.849Z,11.07
2022-08-18T17:44:00.786Z,11.63
2022-08-18T17:46:34.591Z,14.30
2022-08-18T17:49:08.054Z,10.27
2022-08-18T17:51:43.473Z,12.40
2022-08-18T17:54:18.179Z,11.83
2022-08-18T17:56:54.727Z,11.77
2022-08-18T17:59:45.354Z,5.90
2022-08-18T18:02:29.672Z,5.93
2022-08-18T18:04:59.428Z,3.20
2022-08-18T18:07:29.423Z,2.50
2022-08-18T18:10:03.000Z,1.83
2022-08-18T18:12:33.417Z,2.60
2022-08-18T18:15:05.937Z,3.37
2022-08-18T18:17:37.664Z,3.33
2022-08-18T18:20:16.910Z,4.70
2022-08-18T18:22:46.026Z,3.20
2022-08-18T18:25:30.150Z,2.90
2022-08-18T18:28:02.730Z,2.07
2022-08-18T18:30:32.824Z,2.87
2022-08-18T18:33:03.875Z,3.27
2022-08-18T18:35:34.399Z,2.63
2022-08-18T18:38:04.594Z,4.80
2022-08-18T18:40:35.794Z,2.60
2022-08-18T18:43:25.251Z,2.73
2022-08-18T18:46:23.366Z,10.27
2022-08-18T18:49:02.603Z,3.53
2022-08-18T18:51:40.126Z,5.87
2022-08-18T18:54:17.606Z,3.03
2022-08-18T18:56:50.551Z,4.30
2022-08-18T18:59:27.260Z,8.67
2022-08-18T19:02:34.090Z,6.33
2022-08-18T19:05:11.933Z,4.97
2022-08-18T19:07:53.192Z,3.90
2022-08-18T19:10:29.333Z,3.97
2022-08-18T19:13:02.000Z,2.73
2022-08-18T19:15:33.356Z,2.37
2022-08-18T19:18:21.605Z,6.57
2022-08-18T19:21:49.319Z,3.10
2022-08-18T19:23:46.472Z,3.67
2022-08-18T19:26:46.918Z,4.03
2022-08-18T19:29:18.994Z,1.97
2022-08-18T19:31:50.508Z,2.30
2022-08-18T19:34:30.131Z,3.10
2022-08-18T19:37:07.735Z,4.03
2022-08-18T19:39:43.726Z,2.73
2022-08-18T19:42:17.551Z,3.23
2022-08-18T19:45:13.003Z,4.97
2022-08-18T19:47:47.709Z,3.40
2022-08-18T19:50:30.137Z,5.73
2022-08-18T19:53:13.646Z,8.47
2022-08-18T19:56:10.235Z,3.90
2022-08-18T19:59:18.568Z,2.53
2022-08-18T20:01:58.671Z,4.60
2022-08-18T20:04:44.541Z,2.37
2022-08-18T20:07:46.962Z,2.60
2022-08-18T20:10:45.230Z,2.83
2022-08-18T20:13:32.592Z,3.83
2022-08-18T20:16:13.937Z,2.93
2022-08-18T20:18:46.292Z,3.43
2022-08-18T20:21:41.189Z,4.80
2022-08-18T20:24:36.081Z,4.40
2022-08-18T20:27:24.674Z,5.70
2022-08-18T20:30:27.286Z,5.07
2022-08-18T20:33:18.965Z,5.97
2022-08-18T20:36:00.284Z,9.40
2022-08-18T20:38:34.941Z,7.50
2022-08-18T20:41:38.993Z,8.60
2022-08-18T20:44:36.433Z,5.67
2022-08-18T20:47:19.049Z,8.57
2022-08-18T20:49:58.000Z,8.00
2022-08-18T20:52:37.803Z,8.50
2022-08-18T20:55:17.840Z,9.90
2022-08-18T20:57:46.389Z,11.80
2022-08-18T21:00:23.901Z,9.47
2022-08-18T21:02:57.527Z,10.73
2022-08-18T21:05:28.596Z,15.10
2022-08-18T21:08:06.150Z,14.53
2022-08-18T21:10:35.255Z,15.17
2022-08-18T21:13:05.391Z,19.83
2022-08-18T21:15:38.735Z,14.30
2022-08-18T21:18:15.129Z,16.20
2022-08-18T21:20:47.659Z,21.03
2022-08-18T21:23:23.607Z,19.73
2022-08-18T21:25:53.795Z,19.10
2022-08-18T21:28:22.771Z,25.00
2022-08-18T21:31:29.168Z,17.40
2022-08-18T21:33:50.714Z,17.03
2022-08-18T21:36:20.145Z,17.37
2022-08-18T21:39:06.187Z,19.07
2022-08-18T21:41:40.280Z,15.87
2022-08-18T21:44:09.854Z,24.60
2022-08-18T21:46:40.229Z,17.60
2022-08-18T21:49:07.894Z,17.27
2022-08-18T21:51:44.781Z,12.07
2022-08-18T21:54:17.441Z,15.57
2022-08-18T21:56:45.568Z,15.53
2022-08-18T21:59:15.895Z,15.37
2022-08-18T22:01:54.518Z,14.57
2022-08-18T22:04:28.835Z,14.33
2022-08-18T22:07:00.283Z,11.10
2022-08-18T22:09:47.791Z,12.27
2022-08-18T22:12:45.129Z,14.33
2022-08-18T22:15:17.645Z,10.10
2022-08-18T22:17:55.321Z,11.80
2022-08-18T22:20:42.029Z,9.20
2022-08-18T22:23:44.347Z,8.93
2022-08-18T22:26:23.059Z,9.83
2022-08-18T22:29:01.023Z,9.70
2022-08-18T22:31:33.405Z,11.93
2022-08-18T22:34:05.066Z,9.07
2022-08-18T22:36:36.975Z,7.20
2022-08-18T22:39:08.530Z,8.27
2022-08-18T22:41:36.633Z,8.57
2022-08-18T22:44:06.440Z,6.17
2022-08-18T22:46:35.100Z,6.43
2022-08-18T22:49:04.703Z,7.40
2022-08-18T22:51:36.228Z,7.20
2022-08-18T22:54:05.224Z,9.03
2022-08-18T22:56:34.358Z,5.50
2022-08-18T22:59:12.169Z,5.97
2022-08-18T23:01:46.113Z,6.80
2022-08-18T23:04:16.861Z,7.30
2022-08-18T23:06:51.527Z,5.60
2022-08-18T23:09:21.499Z,5.00
2022-08-18T23:11:49.617Z,6.13
2022-08-18T23:14:17.369Z,4.10
2022-08-18T23:16:47.007Z,5.80
2022-08-18T23:19:18.090Z,8.80
2022-08-18T23:21:46.718Z,6.37
2022-08-18T23:24:16.084Z,8.93
2022-08-18T23:26:43.889Z,4.60
2022-08-18T23:29:12.753Z,5.00
2022-08-18T23:31:42.783Z,5.77
2022-08-18T23:34:13.197Z,6.00
2022-08-18T23:36:45.630Z,4.50
2022-08-18T23:39:14.276Z,5.70
2022-08-18T23:41:42.746Z,6.50
2022-08-18T23:44:10.615Z,6.90
2022-08-18T23:46:39.442Z,5.10
2022-08-18T23:49:10.811Z,8.10
2022-08-18T23:51:44.053Z,4.73
2022-08-18T23:54:15.335Z,5.83
2022-08-18T23:56:43.037Z,5.57
2022-08-18T23:59:11.759Z,6.67
